Time;durP1;ratioP1;P1;durP2;ratioP2;P2;SDS_P1;SDS_P2;PMS_P1;PMS_P2;Temp;Humidity;BMP_temperature;BMP_pressure;BME280_temperature;BME280_humidity;BME280_pressure;Samples;Min_cycle;Max_cycle;Signal;HPM_P1;HPM_P2
2023/10/14 00:01:51;;;;;;;17.45;15.90;;;16.90;99.90;;;;;;4929412;28;20779;-74
2023/10/14 00:04:21;;;;;;;17.30;15.68;;;17.00;99.90;;;;;;4935648;28;20058;-73
2023/10/14 00:06:48;;;;;;;18.48;16.63;;;17.00;99.90;;;;;;4931453;28;20075;-73
2023/10/14 00:09:15;;;;;;;19.90;17.98;;;17.10;99.90;;;;;;4915533;28;20090;-73
2023/10/14 00:11:51;;;;;;;19.40;17.73;;;17.20;99.90;;;;;;4934739;28;20039;-74
2023/10/14 00:14:18;;;;;;;20.45;18.75;;;17.30;99.90;;;;;;4916791;28;20201;-73
2023/10/14 00:16:49;;;;;;;20.02;18.10;;;17.30;99.90;;;;;;4932435;28;20039;-73
2023/10/14 00:19:23;;;;;;;21.02;18.98;;;17.30;99.90;;;;;;4934760;28;20047;-71
2023/10/14 00:21:50;;;;;;;20.13;18.10;;;17.30;99.90;;;;;;4938131;28;20035;-73
2023/10/14 00:24:27;;;;;;;20.75;18.75;;;17.20;99.90;;;;;;4931067;28;20123;-72
2023/10/14 00:26:55;;;;;;;21.13;19.15;;;17.30;99.90;;;;;;4934042;28;20133;-73
2023/10/14 00:29:32;;;;;;;22.88;19.02;;;17.20;99.90;;;;;;4901913;28;20047;-73
2023/10/14 00:32:08;;;;;;;21.17;19.27;;;17.30;99.90;;;;;;4914578;28;20055;-72
2023/10/14 00:34:34;;;;;;;21.90;19.90;;;17.30;99.90;;;;;;4900766;28;20043;-72
2023/10/14 00:37:01;;;;;;;21.33;19.42;;;17.30;99.90;;;;;;4918926;29;20135;-74
2023/10/14 00:39:28;;;;;;;22.42;19.90;;;17.30;99.90;;;;;;4916079;29;20138;-74
2023/10/14 00:41:56;;;;;;;21.80;19.73;;;17.30;99.90;;;;;;4915984;29;20503;-72
2023/10/14 00:44:24;;;;;;;22.02;20.15;;;17.20;99.90;;;;;;4913964;29;20735;-74
2023/10/14 00:46:53;;;;;;;21.98;19.83;;;17.20;99.90;;;;;;4931466;28;20135;-73
2023/10/14 00:49:27;;;;;;;20.75;18.75;;;17.20;99.90;;;;;;4916164;28;20043;-74
2023/10/14 00:51:59;;;;;;;20.73;18.67;;;17.20;99.90;;;;;;4934461;28;20189;-75
2023/10/14 00:54:40;;;;;;;22.52;20.17;;;17.20;99.90;;;;;;4934426;28;20074;-72
2023/10/14 00:57:20;;;;;;;22.52;20.17;;;17.30;99.90;;;;;;4935929;28;20047;-73
2023/10/14 00:59:49;;;;;;;22.08;19.88;;;17.20;99.90;;;;;;4935822;28;20671;-74
2023/10/14 01:02:29;;;;;;;21.90;19.63;;;17.20;99.90;;;;;;4932336;28;20122;-75
2023/10/14 01:04:58;;;;;;;22.60;18.67;;;17.30;99.90;;;;;;4936654;28;20044;-74
2023/10/14 01:07:25;;;;;;;20.58;18.63;;;17.30;99.90;;;;;;4930825;28;20035;-75
2023/10/14 01:09:53;;;;;;;25.05;19.77;;;17.30;99.90;;;;;;4934493;28;20069;-75
2023/10/14 01:12:37;;;;;;;21.58;18.92;;;17.30;99.90;;;;;;4929242;28;20667;-75
2023/10/14 01:15:13;;;;;;;21.83;19.02;;;17.30;99.90;;;;;;4934225;28;20139;-75
2023/10/14 01:17:42;;;;;;;20.63;18.35;;;17.30;99.90;;;;;;4931642;28;20062;-74
2023/10/14 01:22:55;;;;;;;19.27;17.73;;;17.50;99.90;;;;;;4932644;28;20399;-74
2023/10/14 01:25:25;;;;;;;21.08;19.15;;;17.50;99.90;;;;;;4930869;28;20051;-74
2023/10/14 01:27:52;;;;;;;19.65;18.15;;;17.50;99.90;;;;;;4913928;29;20044;-73
2023/10/14 01:30:26;;;;;;;23.15;18.80;;;17.50;99.90;;;;;;4931975;28;20038;-73
2023/10/14 01:33:08;;;;;;;21.10;18.90;;;17.50;99.90;;;;;;4915155;29;20050;-74
2023/10/14 01:35:41;;;;;;;20.95;19.02;;;17.60;99.90;;;;;;4931260;28;20043;-73
2023/10/14 01:38:08;;;;;;;20.45;18.45;;;17.50;99.90;;;;;;4935984;28;20047;-74
2023/10/14 01:43:06;;;;;;;19.35;17.67;;;17.40;99.90;;;;;;4916630;29;20047;-75
2023/10/14 01:46:00;;;;;;;19.98;18.08;;;17.40;99.90;;;;;;4914881;28;20050;-74
2023/10/14 01:48:33;;;;;;;18.83;16.88;;;17.30;99.90;;;;;;4931571;28;20039;-73
2023/10/14 01:50:59;;;;;;;24.83;18.17;;;17.30;99.90;;;;;;4932680;28;20043;-74
2023/10/14 01:53:28;;;;;;;18.63;17.23;;;17.30;99.90;;;;;;4900055;28;20042;-73
2023/10/14 01:56:01;;;;;;;19.02;17.05;;;17.30;99.90;;;;;;4932751;28;20078;-73
2023/10/14 01:58:30;;;;;;;17.40;15.65;;;17.10;99.90;;;;;;4913447;28;20142;-73
2023/10/14 02:03:44;;;;;;;17.15;13.55;;;16.50;99.90;;;;;;4931412;28;20140;-71
2023/10/14 02:06:16;;;;;;;14.30;12.23;;;16.30;99.90;;;;;;4934195;28;20042;-72
2023/10/14 02:08:51;;;;;;;19.27;13.70;;;16.20;99.90;;;;;;4934123;28;20155;-70
2023/10/14 02:11:24;;;;;;;27.40;14.52;;;16.20;99.90;;;;;;4915959;28;20079;-72
2023/10/14 02:13:51;;;;;;;19.98;12.40;;;16.10;99.90;;;;;;4934952;28;20058;-71
2023/10/14 02:16:24;;;;;;;19.75;13.65;;;16.00;99.90;;;;;;4913978;28;20525;-72
2023/10/14 02:22:01;;;;;;;17.65;12.43;;;15.80;99.90;;;;;;4929818;28;20085;-72
2023/10/14 02:24:29;;;;;;;19.23;11.05;;;15.70;99.90;;;;;;4933036;28;20248;-73
2023/10/14 02:26:57;;;;;;;15.35;10.45;;;15.70;99.90;;;;;;4918987;29;20044;-72
2023/10/14 02:29:24;;;;;;;21.77;12.52;;;15.60;99.90;;;;;;4931792;28;20449;-72
2023/10/14 02:31:51;;;;;;;18.08;12.45;;;15.50;99.90;;;;;;4939978;28;20039;-75
2023/10/14 02:34:18;;;;;;;27.92;14.30;;;15.50;99.90;;;;;;4909465;29;21330;-75
2023/10/14 02:36:48;;;;;;;9.95;5.25;;;15.40;99.90;;;;;;4937616;28;20641;-73
2023/10/14 02:39:18;;;;;;;10.43;6.40;;;15.20;99.90;;;;;;4936699;28;20522;-75
2023/10/14 02:41:59;;;;;;;5.00;3.78;;;14.90;99.90;;;;;;4932703;28;20054;-75
2023/10/14 02:44:32;;;;;;;6.03;3.80;;;14.80;99.90;;;;;;4934432;28;20086;-74
2023/10/14 02:47:04;;;;;;;3.83;3.42;;;14.50;99.90;;;;;;4932381;28;20098;-75
2023/10/14 02:49:39;;;;;;;5.00;3.80;;;14.40;99.90;;;;;;4916310;28;20046;-73
2023/10/14 02:52:11;;;;;;;3.42;3.22;;;14.30;99.90;;;;;;4938322;28;20043;-74
2023/10/14 02:54:43;;;;;;;3.67;3.33;;;14.30;99.90;;;;;;4917591;28;20706;-73
2023/10/14 02:57:28;;;;;;;4.30;4.00;;;14.20;99.90;;;;;;4936241;28;20184;-73
2023/10/14 02:59:56;;;;;;;3.72;3.47;;;14.20;99.90;;;;;;4936468;28;20067;-74
2023/10/14 03:02:25;;;;;;;3.28;3.08;;;14.00;99.90;;;;;;4918382;28;20549;-74
2023/10/14 03:04:55;;;;;;;3.47;3.28;;;13.90;99.90;;;;;;4935345;28;20145;-72
2023/10/14 03:10:35;;;;;;;3.45;3.22;;;13.80;99.90;;;;;;4909042;29;20106;-72
2023/10/14 03:13:02;;;;;;;3.05;2.67;;;13.60;99.90;;;;;;4913226;29;20148;-73
2023/10/14 03:15:31;;;;;;;3.13;2.88;;;13.40;99.90;;;;;;4900964;28;21847;-75
2023/10/14 03:17:58;;;;;;;9.75;3.17;;;13.10;99.90;;;;;;4930696;28;20110;-74
2023/10/14 03:22:59;;;;;;;5.30;3.17;;;12.80;99.90;;;;;;4937899;28;20142;-72
2023/10/14 03:25:29;;;;;;;6.25;3.33;;;12.70;99.90;;;;;;4920809;28;20687;-75
2023/10/14 03:28:07;;;;;;;3.45;3.22;;;12.70;99.90;;;;;;4936821;28;20043;-74
2023/10/14 03:30:40;;;;;;;4.25;3.95;;;12.70;99.90;;;;;;4934159;28;20122;-75
2023/10/14 03:33:10;;;;;;;4.30;4.05;;;12.60;99.90;;;;;;4905425;28;20065;-74
2023/10/14 03:35:37;;;;;;;5.20;4.80;;;12.60;99.90;;;;;;4931911;28;20164;-74
2023/10/14 03:38:14;;;;;;;4.95;4.50;;;12.60;99.90;;;;;;4919449;28;20055;-74
2023/10/14 03:43:15;;;;;;;4.88;4.47;;;12.30;99.90;;;;;;4938844;28;20442;-73
2023/10/14 03:46:15;;;;;;;5.10;4.80;;;12.20;99.90;;;;;;4933886;28;20110;-73
2023/10/14 03:48:37;;;;;;;6.78;5.00;;;12.20;99.90;;;;;;4935877;28;20106;-72
2023/10/14 03:51:03;;;;;;;5.60;5.10;;;12.20;99.90;;;;;;4922183;29;20051;-73
2023/10/14 03:53:34;;;;;;;6.43;5.93;;;12.20;99.90;;;;;;4934523;28;20053;-71
2023/10/14 03:56:01;;;;;;;6.65;6.15;;;12.20;99.90;;;;;;4921307;28;20045;-73
2023/10/14 03:58:31;;;;;;;8.27;5.47;;;12.30;99.90;;;;;;4920607;28;20051;-73
2023/10/14 04:01:02;;;;;;;5.45;5.05;;;12.10;99.90;;;;;;4937038;28;20102;-74
2023/10/14 04:03:39;;;;;;;5.90;5.05;;;12.10;99.90;;;;;;4938300;28;20047;-74
2023/10/14 04:06:15;;;;;;;5.95;5.45;;;12.10;99.90;;;;;;4937641;28;20047;-74
2023/10/14 04:08:48;;;;;;;6.35;5.50;;;12.10;99.90;;;;;;4919311;28;20082;-73
2023/10/14 04:11:27;;;;;;;7.10;6.32;;;12.10;99.90;;;;;;4917596;28;20044;-74
2023/10/14 04:14:13;;;;;;;6.75;6.25;;;12.20;99.90;;;;;;4935056;28;20522;-73
2023/10/14 04:19:27;;;;;;;9.05;7.38;;;12.10;99.90;;;;;;4937140;28;20138;-74
2023/10/14 04:22:03;;;;;;;7.45;6.75;;;12.20;99.90;;;;;;4937627;28;20047;-72
2023/10/14 04:30:10;;;;;;;4.60;4.20;;;12.20;99.90;;;;;;4905995;28;20625;-71
2023/10/14 04:35:24;;;;;;;8.40;5.13;;;12.10;99.90;;;;;;4938758;28;20063;-72
2023/10/14 04:37:53;;;;;;;6.50;5.18;;;11.80;99.90;;;;;;4921009;28;20047;-72
2023/10/14 04:43:12;;;;;;;10.77;5.63;;;11.50;99.90;;;;;;4937165;28;20039;-73
2023/10/14 04:45:45;;;;;;;8.93;5.82;;;11.40;99.90;;;;;;4916902;28;20042;-71
2023/10/14 04:48:14;;;;;;;11.07;6.10;;;11.30;99.90;;;;;;4936808;28;20039;-72
2023/10/14 04:50:42;;;;;;;14.57;6.18;;;11.40;99.90;;;;;;4914338;28;20035;-72
2023/10/14 04:53:13;;;;;;;11.52;6.45;;;11.40;99.90;;;;;;4940717;28;20050;-70
2023/10/14 04:55:43;;;;;;;11.60;6.60;;;11.40;99.90;;;;;;4933869;28;20043;-72
2023/10/14 05:00:43;;;;;;;13.88;7.13;;;11.40;99.90;;;;;;4914546;28;20053;-72
2023/10/14 05:03:14;;;;;;;16.00;6.97;;;11.40;99.90;;;;;;4934179;28;20632;-72
2023/10/14 05:08:45;;;;;;;11.77;6.80;;;11.40;99.90;;;;;;4908872;28;20059;-71
2023/10/14 05:11:13;;;;;;;12.60;7.28;;;11.40;99.90;;;;;;4933084;28;20737;-71
2023/10/14 05:13:42;;;;;;;16.42;6.75;;;11.40;99.90;;;;;;4931886;28;20043;-71
2023/10/14 05:16:16;;;;;;;11.20;5.07;;;11.30;99.90;;;;;;4935605;28;20583;-72
2023/10/14 05:18:58;;;;;;;18.38;5.65;;;11.30;99.90;;;;;;4932089;28;20373;-71
2023/10/14 05:21:35;;;;;;;13.75;5.03;;;11.30;99.90;;;;;;4935504;28;20725;-71
2023/10/14 05:24:09;;;;;;;19.65;5.65;;;11.40;99.90;;;;;;4939039;28;20106;-71
2023/10/14 05:26:46;;;;;;;13.45;5.75;;;11.40;99.90;;;;;;4919456;28;20128;-71
2023/10/14 05:29:17;;;;;;;16.45;5.75;;;11.40;99.90;;;;;;4937531;28;20074;-71
2023/10/14 05:31:45;;;;;;;10.15;5.55;;;11.40;99.90;;;;;;4917212;28;20055;-71
2023/10/14 05:34:13;;;;;;;11.13;5.05;;;11.40;99.90;;;;;;4935504;28;20053;-71
2023/10/14 05:36:40;;;;;;;15.90;5.57;;;11.40;99.90;;;;;;4932208;28;20098;-71
2023/10/14 05:39:10;;;;;;;17.60;5.88;;;11.40;99.90;;;;;;4938387;28;20050;-71
2023/10/14 05:41:38;;;;;;;13.80;3.88;;;11.40;99.90;;;;;;4933145;28;20053;-72
2023/10/14 05:44:08;;;;;;;25.65;4.65;;;11.30;99.90;;;;;;4922597;28;20035;-71
2023/10/14 05:46:35;;;;;;;14.02;5.47;;;11.20;99.90;;;;;;4934153;28;20319;-71
2023/10/14 05:49:04;;;;;;;10.23;4.10;;;11.30;99.90;;;;;;4923212;28;20039;-70
2023/10/14 05:51:32;;;;;;;14.60;4.35;;;11.30;99.90;;;;;;4934307;28;20057;-72
2023/10/14 05:53:58;;;;;;;12.90;3.90;;;11.30;99.90;;;;;;4924704;28;20099;-70
2023/10/14 05:56:28;;;;;;;9.70;4.35;;;11.20;99.90;;;;;;4933326;28;20129;-71
2023/10/14 05:58:55;;;;;;;13.38;4.45;;;11.20;99.90;;;;;;4934061;28;20126;-70
2023/10/14 06:01:23;;;;;;;19.52;4.90;;;11.20;99.90;;;;;;4934218;28;20067;-71
2023/10/14 06:03:50;;;;;;;12.13;4.88;;;11.20;99.90;;;;;;4932754;28;20107;-71
2023/10/14 06:06:21;;;;;;;14.85;4.20;;;11.20;99.90;;;;;;4933964;28;20046;-71
2023/10/14 06:08:49;;;;;;;14.60;5.40;;;11.20;99.90;;;;;;4932602;28;20051;-71
2023/10/14 06:11:17;;;;;;;17.60;5.55;;;11.10;99.90;;;;;;4917794;28;20046;-72
2023/10/14 06:13:44;;;;;;;12.10;6.15;;;11.00;99.90;;;;;;4920194;28;20047;-70
2023/10/14 06:16:12;;;;;;;19.10;6.68;;;11.00;99.90;;;;;;4936815;28;20047;-72
2023/10/14 06:18:40;;;;;;;19.30;6.75;;;10.90;99.90;;;;;;4936272;28;20048;-71
2023/10/14 06:21:10;;;;;;;18.40;6.97;;;11.00;99.90;;;;;;4935398;28;20592;-70
2023/10/14 06:23:46;;;;;;;15.02;6.93;;;11.00;99.90;;;;;;4919286;28;20099;-71
2023/10/14 06:26:17;;;;;;;15.40;6.47;;;11.00;99.90;;;;;;4915113;28;20036;-71
2023/10/14 06:28:45;;;;;;;16.13;6.00;;;11.00;99.90;;;;;;4933534;28;20054;-70
2023/10/14 06:31:12;;;;;;;24.02;7.50;;;11.00;99.90;;;;;;4936794;28;20106;-71
2023/10/14 06:33:43;;;;;;;14.57;5.78;;;11.00;99.90;;;;;;4916702;28;20055;-71
2023/10/14 06:36:14;;;;;;;18.40;5.88;;;11.00;99.90;;;;;;4923059;28;20584;-71
2023/10/14 06:38:44;;;;;;;21.20;6.60;;;11.00;99.90;;;;;;4917821;28;20051;-71
2023/10/14 06:41:16;;;;;;;21.65;8.52;;;11.00;99.90;;;;;;4932063;28;20067;-71
2023/10/14 06:43:55;;;;;;;17.40;7.22;;;10.90;99.90;;;;;;4935040;28;20048;-69
2023/10/14 06:46:23;;;;;;;17.77;7.10;;;10.90;99.90;;;;;;4935461;28;20426;-71
2023/10/14 06:48:55;;;;;;;18.90;7.05;;;10.90;99.90;;;;;;4920778;28;20043;-72
2023/10/14 06:51:22;;;;;;;14.55;7.07;;;10.90;99.90;;;;;;4927217;28;20552;-71
2023/10/14 06:53:51;;;;;;;17.88;6.93;;;10.90;99.90;;;;;;4917171;28;20039;-71
2023/10/14 06:56:20;;;;;;;15.80;6.78;;;10.90;99.90;;;;;;4932358;28;20122;-72
2023/10/14 06:58:47;;;;;;;15.55;6.97;;;10.90;99.90;;;;;;4931427;28;20042;-71
2023/10/14 07:01:16;;;;;;;17.65;7.97;;;10.90;99.90;;;;;;4935771;28;20087;-71
2023/10/14 07:03:43;;;;;;;11.48;6.72;;;10.90;99.90;;;;;;4936171;28;20130;-71
2023/10/14 07:06:10;;;;;;;15.77;7.50;;;11.00;99.90;;;;;;4918996;28;20545;-73
2023/10/14 07:08:37;;;;;;;17.38;7.25;;;11.00;99.90;;;;;;4919350;28;20039;-73
2023/10/14 07:11:06;;;;;;;15.80;8.45;;;11.00;99.90;;;;;;4937869;28;20141;-73
2023/10/14 07:13:33;;;;;;;13.65;6.50;;;11.00;99.90;;;;;;4945843;28;20055;-73
2023/10/14 07:16:06;;;;;;;16.40;7.05;;;11.00;99.90;;;;;;4939577;28;20107;-72
2023/10/14 07:18:36;;;;;;;16.52;6.28;;;11.00;99.90;;;;;;4927856;28;20054;-74
2023/10/14 07:21:08;;;;;;;13.45;6.43;;;11.00;99.90;;;;;;4950028;28;20051;-72
2023/10/14 07:23:36;;;;;;;22.88;7.00;;;11.00;99.90;;;;;;4953728;28;20055;-72
2023/10/14 07:26:11;;;;;;;14.68;6.72;;;11.00;99.90;;;;;;4955664;28;20027;-72
2023/10/14 07:28:42;;;;;;;14.77;6.90;;;11.00;99.90;;;;;;4926082;28;20040;-72
2023/10/14 07:31:10;;;;;;;14.45;7.10;;;11.00;99.90;;;;;;4955370;28;20038;-72
2023/10/14 07:33:38;;;;;;;18.80;7.38;;;11.00;99.90;;;;;;4940573;28;20038;-70
2023/10/14 07:36:06;;;;;;;21.23;8.02;;;11.00;99.90;;;;;;4959931;28;20039;-71
2023/10/14 07:38:36;;;;;;;15.55;6.57;;;11.00;99.90;;;;;;4948382;28;20065;-72
2023/10/14 07:41:04;;;;;;;20.60;6.75;;;11.00;99.90;;;;;;4941006;28;20076;-71
2023/10/14 07:43:34;;;;;;;24.67;7.70;;;10.90;99.90;;;;;;4959103;28;20031;-72
2023/10/14 07:46:03;;;;;;;16.83;7.07;;;10.90;99.90;;;;;;4956342;28;20059;-71
2023/10/14 07:48:30;;;;;;;8.98;6.22;;;10.90;99.90;;;;;;4959562;28;20035;-71
2023/10/14 07:50:58;;;;;;;12.98;6.70;;;11.00;99.90;;;;;;4949267;28;21387;-70
2023/10/14 07:53:31;;;;;;;22.70;7.65;;;11.10;99.90;;;;;;4939082;28;20076;-72
2023/10/14 07:55:58;;;;;;;14.05;5.80;;;11.10;99.90;;;;;;4906647;28;20130;-71
2023/10/14 07:58:26;;;;;;;12.75;6.15;;;11.10;99.90;;;;;;4943258;28;20047;-71
2023/10/14 08:00:55;;;;;;;15.88;6.57;;;11.00;99.90;;;;;;4927134;28;20035;-71
2023/10/14 08:03:25;;;;;;;17.50;9.05;;;10.90;99.90;;;;;;4955211;28;20278;-71
2023/10/14 08:05:59;;;;;;;14.63;7.88;;;10.90;99.90;;;;;;4950884;28;20082;-69
2023/10/14 08:08:31;;;;;;;13.25;7.05;;;11.00;99.90;;;;;;4941930;28;20047;-71
2023/10/14 08:10:59;;;;;;;22.40;8.85;;;11.00;99.90;;;;;;4937838;28;20110;-71
2023/10/14 08:13:27;;;;;;;20.20;8.85;;;11.10;99.90;;;;;;4955604;28;20069;-71
2023/10/14 08:15:55;;;;;;;20.10;10.50;;;11.10;99.90;;;;;;4934329;28;20051;-71
2023/10/14 08:18:24;;;;;;;22.42;10.20;;;11.30;99.90;;;;;;4955253;28;20043;-70
2023/10/14 08:20:55;;;;;;;17.08;10.27;;;11.40;99.90;;;;;;4948129;28;20058;-70
2023/10/14 08:23:27;;;;;;;16.25;11.63;;;11.30;99.90;;;;;;4940908;28;20049;-71
2023/10/14 08:25:54;;;;;;;14.38;11.98;;;11.30;99.90;;;;;;4921646;28;20043;-70
2023/10/14 08:28:22;;;;;;;19.98;11.48;;;11.30;99.90;;;;;;4943380;28;20130;-71
2023/10/14 08:30:50;;;;;;;20.95;12.98;;;11.30;99.90;;;;;;4940691;28;20039;-70
2023/10/14 08:33:19;;;;;;;18.00;11.85;;;11.30;99.90;;;;;;4951055;28;20055;-71
2023/10/14 08:35:48;;;;;;;16.73;12.75;;;11.50;99.90;;;;;;4941429;28;20028;-73
2023/10/14 08:38:19;;;;;;;18.48;12.80;;;11.60;99.90;;;;;;4926625;28;20035;-71
2023/10/14 08:40:49;;;;;;;22.17;14.38;;;11.90;99.90;;;;;;4954558;28;20047;-71
2023/10/14 08:43:26;;;;;;;22.77;15.30;;;12.10;99.90;;;;;;4933660;28;20065;-71
2023/10/14 08:45:54;;;;;;;30.90;16.20;;;12.20;99.90;;;;;;4955439;28;20047;-71
2023/10/14 08:48:26;;;;;;;20.65;14.75;;;12.10;99.90;;;;;;4926943;28;20044;-73
2023/10/14 08:50:58;;;;;;;30.95;17.23;;;12.30;99.90;;;;;;4953215;28;20713;-71
2023/10/14 08:53:26;;;;;;;23.05;17.83;;;12.40;99.90;;;;;;4939385;28;20110;-72
2023/10/14 08:55:53;;;;;;;29.95;16.95;;;12.30;99.90;;;;;;4949755;28;20047;-70
2023/10/14 08:58:22;;;;;;;17.10;15.35;;;12.10;99.90;;;;;;4942732;28;20328;-71
2023/10/14 09:00:54;;;;;;;19.48;15.88;;;11.90;99.90;;;;;;4951488;28;20207;-71
2023/10/14 09:03:24;;;;;;;21.27;17.98;;;12.10;99.90;;;;;;4950610;28;20035;-71
2023/10/14 09:05:52;;;;;;;19.35;16.88;;;12.30;99.90;;;;;;4951704;28;20046;-71
2023/10/14 09:08:19;;;;;;;17.85;16.02;;;12.40;99.90;;;;;;4943329;28;20126;-71
2023/10/14 09:10:49;;;;;;;18.60;16.58;;;12.40;99.90;;;;;;4954483;28;20047;-71
2023/10/14 09:13:20;;;;;;;18.85;17.13;;;12.30;99.90;;;;;;4940172;28;20049;-71
2023/10/14 09:15:49;;;;;;;21.85;18.15;;;12.20;99.90;;;;;;4955637;28;20035;-71
2023/10/14 09:18:18;;;;;;;20.38;18.27;;;12.20;99.90;;;;;;4929352;28;20043;-71
2023/10/14 09:20:52;;;;;;;23.05;17.98;;;12.20;99.90;;;;;;4937902;28;20075;-72
2023/10/14 09:23:44;;;;;;;21.08;18.95;;;12.30;99.90;;;;;;4955656;28;20081;-71
2023/10/14 09:26:09;;;;;;;26.23;19.77;;;12.60;99.90;;;;;;4948978;28;20054;-70
2023/10/14 09:28:40;;;;;;;24.73;20.65;;;13.00;99.90;;;;;;4954067;28;20656;-71
2023/10/14 09:31:09;;;;;;;21.60;19.65;;;13.10;99.90;;;;;;4949835;28;20074;-71
2023/10/14 09:33:41;;;;;;;24.10;20.48;;;13.20;99.90;;;;;;4935065;28;20047;-72
2023/10/14 09:36:18;;;;;;;25.30;20.25;;;13.00;99.90;;;;;;4950480;28;20039;-73
2023/10/14 09:38:54;;;;;;;21.77;19.63;;;12.90;99.90;;;;;;4951774;28;20050;-72
2023/10/14 09:41:22;;;;;;;22.73;20.33;;;13.00;99.90;;;;;;4949963;28;20055;-71
2023/10/14 09:43:51;;;;;;;23.00;20.75;;;13.20;99.90;;;;;;4951686;28;20039;-73
2023/10/14 09:46:20;;;;;;;23.48;21.17;;;13.30;99.90;;;;;;4933616;28;20050;-72
2023/10/14 09:48:50;;;;;;;22.83;20.67;;;13.50;99.90;;;;;;4929555;28;20097;-72
2023/10/14 09:51:19;;;;;;;24.20;21.80;;;13.80;99.90;;;;;;4913168;28;20062;-73
2023/10/14 09:53:48;;;;;;;23.60;21.45;;;13.90;99.90;;;;;;4931257;28;20103;-73
2023/10/14 09:56:16;;;;;;;25.48;22.90;;;13.80;99.90;;;;;;4930113;28;20526;-72
2023/10/14 09:58:56;;;;;;;26.73;21.83;;;13.80;99.90;;;;;;4935743;28;20137;-72
2023/10/14 10:01:24;;;;;;;24.90;22.73;;;13.70;99.90;;;;;;4932698;28;20631;-74
2023/10/14 10:04:00;;;;;;;23.45;21.13;;;13.50;99.90;;;;;;4931029;28;20054;-72
2023/10/14 10:06:59;;;;;;;31.55;23.52;;;13.30;99.90;;;;;;4920564;28;20044;-73
2023/10/14 10:10:10;;;;;;;25.27;22.75;;;13.20;99.90;;;;;;4934549;28;20050;-72
2023/10/14 10:12:41;;;;;;;24.08;21.42;;;13.70;99.90;;;;;;4930628;28;20062;-72
2023/10/14 10:15:09;;;;;;;32.53;22.80;;;13.80;99.90;;;;;;4914434;28;20128;-73
2023/10/14 10:17:39;;;;;;;29.25;22.90;;;14.00;99.90;;;;;;4916605;28;20051;-72
2023/10/14 10:20:16;;;;;;;26.05;22.30;;;14.30;99.90;;;;;;4930404;28;20122;-73
2023/10/14 10:22:52;;;;;;;25.15;22.70;;;14.20;99.90;;;;;;4932883;28;20632;-72
2023/10/14 10:25:23;;;;;;;25.58;22.15;;;13.50;99.90;;;;;;4932473;28;20138;-73
2023/10/14 10:27:55;;;;;;;25.00;22.40;;;13.10;99.90;;;;;;4923606;28;20074;-73
2023/10/14 10:30:22;;;;;;;26.27;23.55;;;12.80;99.90;;;;;;4902831;28;20048;-73
2023/10/14 10:32:50;;;;;;;26.10;23.15;;;12.60;99.90;;;;;;4933639;28;20134;-74
2023/10/14 10:35:19;;;;;;;30.80;24.75;;;12.50;99.90;;;;;;4914515;28;20065;-74
2023/10/14 10:37:57;;;;;;;26.33;23.58;;;12.50;99.90;;;;;;4918158;29;20070;-72
2023/10/14 10:40:26;;;;;;;26.30;23.40;;;12.50;99.90;;;;;;4899920;28;20055;-74
2023/10/14 10:42:56;;;;;;;27.73;22.48;;;12.40;99.90;;;;;;4933591;28;20078;-74
2023/10/14 10:45:34;;;;;;;26.58;22.15;;;12.50;99.90;;;;;;4931555;28;20050;-73
2023/10/14 10:48:04;;;;;;;26.35;23.45;;;12.50;99.90;;;;;;4918263;28;20035;-74
2023/10/14 10:50:40;;;;;;;25.95;23.35;;;12.40;99.90;;;;;;4939507;28;20047;-74
2023/10/14 10:53:10;;;;;;;26.23;23.35;;;12.20;99.90;;;;;;4919835;28;20059;-75
2023/10/14 10:55:42;;;;;;;25.02;22.83;;;12.10;99.90;;;;;;4902745;28;20781;-74
2023/10/14 10:58:14;;;;;;;38.67;23.70;;;12.10;99.90;;;;;;4932092;28;20044;-74
2023/10/14 11:00:45;;;;;;;25.20;22.67;;;12.30;99.90;;;;;;4920733;28;20403;-74
2023/10/14 11:03:14;;;;;;;25.35;22.58;;;12.70;99.90;;;;;;4922832;28;20621;-74
2023/10/14 11:05:43;;;;;;;28.20;23.52;;;12.90;99.90;;;;;;4919160;29;20046;-75
2023/10/14 11:08:11;;;;;;;25.25;22.67;;;13.00;99.90;;;;;;4917711;28;20066;-74
2023/10/14 11:10:39;;;;;;;27.88;23.30;;;13.10;99.90;;;;;;4935598;28;20109;-75
2023/10/14 11:13:13;;;;;;;25.98;23.55;;;13.20;99.90;;;;;;4935032;28;20462;-74
2023/10/14 11:15:43;;;;;;;26.38;23.48;;;13.30;99.90;;;;;;4935477;28;20090;-75
2023/10/14 11:18:10;;;;;;;25.98;23.38;;;13.60;99.90;;;;;;4933400;28;20043;-75
2023/10/14 11:20:54;;;;;;;26.20;23.55;;;13.80;99.90;;;;;;4935305;28;21032;-74
2023/10/14 11:23:21;;;;;;;27.05;23.85;;;13.90;99.90;;;;;;4935478;28;21991;-74
2023/10/14 11:25:51;;;;;;;31.15;23.90;;;14.00;99.90;;;;;;4921067;29;20471;-74
2023/10/14 11:28:18;;;;;;;26.65;24.25;;;14.20;99.90;;;;;;4931282;28;20125;-74
2023/10/14 11:30:46;;;;;;;34.45;23.25;;;14.50;99.90;;;;;;4937295;28;20066;-73
2023/10/14 11:33:14;;;;;;;26.05;23.50;;;14.70;99.90;;;;;;4932591;28;20081;-75
2023/10/14 11:35:41;;;;;;;25.65;23.30;;;14.60;99.90;;;;;;4934607;28;20050;-75
2023/10/14 11:38:13;;;;;;;27.73;23.42;;;14.10;99.90;;;;;;4934005;28;20071;-75
2023/10/14 11:40:47;;;;;;;30.38;24.67;;;13.70;99.90;;;;;;4915702;28;20138;-73
2023/10/14 11:43:16;;;;;;;25.50;22.90;;;13.60;99.90;;;;;;4905176;28;20074;-74
2023/10/14 11:45:45;;;;;;;25.73;23.52;;;13.90;99.90;;;;;;4936247;28;20447;-73
2023/10/14 11:48:28;;;;;;;26.05;23.42;;;14.20;99.90;;;;;;4934505;28;20275;-73
2023/10/14 11:51:02;;;;;;;25.58;23.08;;;14.20;99.90;;;;;;4912418;28;20048;-73
2023/10/14 11:53:32;;;;;;;26.27;23.30;;;14.20;99.90;;;;;;4931907;28;20142;-73
2023/10/14 11:56:01;;;;;;;26.27;22.85;;;14.40;99.90;;;;;;4930691;28;20059;-72
2023/10/14 11:58:29;;;;;;;26.73;24.20;;;14.60;99.90;;;;;;4918733;28;20674;-73
2023/10/14 12:00:57;;;;;;;25.33;22.73;;;14.70;99.90;;;;;;4934696;28;20631;-73
2023/10/14 12:03:25;;;;;;;25.85;23.38;;;14.70;99.90;;;;;;4933427;28;20187;-74
2023/10/14 12:05:58;;;;;;;26.77;24.10;;;14.40;99.90;;;;;;4933222;28;20078;-72
2023/10/14 12:08:39;;;;;;;28.05;23.38;;;14.10;99.90;;;;;;4934510;28;20084;-73
2023/10/14 12:11:08;;;;;;;26.88;23.35;;;14.00;99.90;;;;;;4929715;28;20403;-73
2023/10/14 12:13:36;;;;;;;26.85;24.35;;;13.70;99.90;;;;;;4933808;28;20562;-73
2023/10/14 12:16:17;;;;;;;25.35;23.02;;;13.60;99.90;;;;;;4931593;28;20138;-72
2023/10/14 12:18:54;;;;;;;26.20;23.63;;;13.80;99.90;;;;;;4935495;28;20043;-72
2023/10/14 12:21:22;;;;;;;26.55;23.98;;;13.90;99.90;;;;;;4925515;28;20118;-73
2023/10/14 12:23:49;;;;;;;27.02;24.25;;;13.80;99.90;;;;;;4940556;28;20066;-73
2023/10/14 12:26:16;;;;;;;26.83;23.75;;;13.90;99.90;;;;;;4916950;28;20158;-73
2023/10/14 12:29:07;;;;;;;26.27;22.95;;;14.20;99.90;;;;;;4928184;28;20121;-72
2023/10/14 12:31:38;;;;;;;27.13;24.67;;;14.60;99.90;;;;;;4937722;28;20047;-73
2023/10/14 12:34:08;;;;;;;26.80;24.40;;;15.00;99.90;;;;;;4934129;28;20071;-73
2023/10/14 12:36:40;;;;;;;28.20;25.35;;;15.00;99.90;;;;;;4910331;28;20047;-73
2023/10/14 12:39:21;;;;;;;26.88;24.70;;;15.00;99.90;;;;;;4924648;28;20071;-72
2023/10/14 12:41:49;;;;;;;26.90;24.70;;;14.90;99.90;;;;;;4939301;28;20051;-74
2023/10/14 12:44:17;;;;;;;27.02;24.80;;;15.00;99.90;;;;;;4938301;28;20518;-73
2023/10/14 12:46:45;;;;;;;30.40;24.30;;;15.00;99.90;;;;;;4918782;29;20035;-74
2023/10/14 12:49:18;;;;;;;24.67;22.58;;;14.90;99.90;;;;;;4935108;28;20162;-74
2023/10/14 12:51:46;;;;;;;24.85;22.63;;;14.70;99.90;;;;;;4936630;28;20075;-74
2023/10/14 12:54:16;;;;;;;28.27;22.98;;;14.20;99.90;;;;;;4918840;28;20690;-73
2023/10/14 12:56:43;;;;;;;28.52;24.80;;;13.90;99.90;;;;;;4934234;28;20169;-74
2023/10/14 12:59:13;;;;;;;25.70;23.40;;;13.80;99.90;;;;;;4917447;28;20043;-74
2023/10/14 13:01:53;;;;;;;26.80;24.45;;;13.70;99.90;;;;;;4904235;28;20054;-74
2023/10/14 13:04:21;;;;;;;27.52;24.85;;;13.50;99.90;;;;;;4933756;28;20454;-73
2023/10/14 13:06:49;;;;;;;27.08;24.25;;;13.70;99.90;;;;;;4936835;28;20043;-73
2023/10/14 13:09:16;;;;;;;25.15;23.05;;;13.90;99.90;;;;;;4902015;28;20063;-72
2023/10/14 13:11:43;;;;;;;25.23;22.70;;;14.10;99.90;;;;;;4932930;28;20102;-74
2023/10/14 13:14:25;;;;;;;26.52;23.98;;;14.10;99.90;;;;;;4918278;28;20073;-74
2023/10/14 13:16:55;;;;;;;26.33;23.83;;;13.90;99.90;;;;;;4934845;28;20035;-73
2023/10/14 13:19:23;;;;;;;25.77;23.60;;;13.70;99.90;;;;;;4933729;28;20042;-74
2023/10/14 13:21:50;;;;;;;25.48;23.20;;;13.40;99.90;;;;;;4935161;28;20054;-73
2023/10/14 13:24:18;;;;;;;25.52;23.30;;;13.20;99.90;;;;;;4935490;28;20043;-74
2023/10/14 13:26:45;;;;;;;25.95;23.70;;;13.00;99.90;;;;;;4916950;28;20039;-73
2023/10/14 13:29:13;;;;;;;27.10;24.58;;;12.90;99.90;;;;;;4916537;28;20125;-74
2023/10/14 13:31:40;;;;;;;25.02;22.98;;;12.90;99.90;;;;;;4918188;28;20664;-74